createdAt,value
2022-12-31T00:00:17.372Z,2.13
2022-12-31T00:02:44.768Z,2.47
2022-12-31T00:05:12.091Z,2.14
2022-12-31T00:10:06.171Z,2.29
2022-12-31T00:12:33.434Z,2.73
2022-12-31T00:15:02.230Z,2.74
2022-12-31T00:17:30.069Z,2.46
2022-12-31T00:19:57.559Z,2.71
2022-12-31T00:22:24.738Z,2.54
2022-12-31T00:24:52.135Z,2.62
2022-12-31T00:27:19.435Z,2.81
2022-12-31T00:29:46.672Z,2.90
2022-12-31T00:32:15.373Z,2.23
2022-12-31T00:34:42.516Z,2.67
2022-12-31T00:37:09.649Z,3.64
2022-12-31T00:39:36.750Z,3.34
2022-12-31T00:42:04.316Z,2.47
2022-12-31T00:44:31.593Z,3.03
2022-12-31T00:46:58.914Z,2.88
2022-12-31T00:49:27.809Z,2.35
2022-12-31T00:51:55.130Z,2.61
2022-12-31T00:54:22.335Z,1.97
2022-12-31T00:56:49.550Z,2.15
2022-12-31T00:59:16.795Z,2.17
2022-12-31T01:01:44.247Z,2.46
2022-12-31T01:04:14.049Z,2.00
2022-12-31T01:06:43.692Z,2.49
2022-12-31T01:09:12.362Z,2.13
2022-12-31T01:11:39.771Z,2.38
2022-12-31T01:14:09.391Z,2.04
2022-12-31T01:16:39.868Z,2.31
2022-12-31T01:19:10.314Z,2.68
2022-12-31T01:21:39.619Z,2.61
2022-12-31T01:24:09.989Z,2.54
2022-12-31T01:26:38.248Z,2.17
2022-12-31T01:29:07.126Z,2.11
2022-12-31T01:31:35.794Z,2.02
2022-12-31T01:34:03.611Z,1.93
2022-12-31T01:36:33.456Z,2.38
2022-12-31T01:39:03.788Z,2.08
2022-12-31T01:41:35.011Z,2.13
2022-12-31T01:44:24.035Z,2.14
2022-12-31T01:46:55.997Z,1.91
2022-12-31T01:49:27.148Z,1.82
2022-12-31T01:52:00.793Z,1.99
2022-12-31T01:54:31.993Z,1.95
2022-12-31T01:57:01.610Z,2.03
2022-12-31T01:59:31.768Z,1.96
2022-12-31T02:02:00.581Z,1.90
2022-12-31T02:04:29.467Z,1.89
2022-12-31T02:07:00.797Z,2.34
2022-12-31T02:09:28.538Z,2.02
2022-12-31T02:11:55.653Z,2.12
2022-12-31T02:14:28.913Z,2.21
2022-12-31T02:17:07.885Z,2.04
2022-12-31T02:20:06.474Z,2.43
2022-12-31T02:23:04.099Z,2.13
2022-12-31T02:25:57.313Z,2.63
2022-12-31T02:28:46.879Z,2.36
2022-12-31T02:31:24.294Z,2.36
2022-12-31T02:33:57.599Z,2.86
2022-12-31T02:36:32.456Z,1.85
2022-12-31T02:39:01.053Z,1.92
2022-12-31T02:41:28.192Z,1.84
2022-12-31T02:43:55.277Z,2.06
2022-12-31T02:46:33.139Z,1.63
2022-12-31T02:49:10.952Z,1.90
2022-12-31T02:51:50.232Z,1.79
2022-12-31T02:54:28.693Z,1.73
2022-12-31T02:57:10.458Z,1.85
2022-12-31T02:59:43.853Z,1.96
2022-12-31T03:02:18.896Z,1.76
2022-12-31T03:04:51.594Z,1.81
2022-12-31T03:07:22.480Z,1.65
2022-12-31T03:09:50.237Z,1.77
2022-12-31T03:12:20.343Z,1.64
2022-12-31T03:14:47.741Z,1.67
2022-12-31T03:17:16.406Z,1.71
2022-12-31T03:19:43.602Z,1.76
2022-12-31T03:22:13.264Z,1.84
2022-12-31T03:24:40.390Z,1.46
2022-12-31T03:27:07.479Z,1.77
2022-12-31T03:29:34.630Z,1.67
2022-12-31T03:32:01.862Z,1.53
2022-12-31T03:34:30.463Z,1.52
2022-12-31T03:36:57.573Z,1.57
2022-12-31T03:39:24.699Z,1.43
2022-12-31T03:41:51.876Z,1.41
2022-12-31T03:44:19.014Z,1.29
2022-12-31T03:46:46.152Z,1.51
2022-12-31T03:49:13.360Z,1.57
2022-12-31T03:51:42.027Z,1.46
2022-12-31T03:54:09.193Z,1.30
2022-12-31T03:56:36.383Z,1.40
2022-12-31T03:59:03.562Z,1.30
2022-12-31T04:01:30.879Z,1.45
2022-12-31T04:03:58.339Z,1.38
2022-12-31T04:06:25.706Z,1.45
2022-12-31T04:08:54.287Z,1.32
2022-12-31T04:11:21.537Z,1.33
2022-12-31T04:13:48.706Z,1.47
2022-12-31T04:16:15.912Z,1.35
2022-12-31T04:18:42.974Z,1.38
2022-12-31T04:21:10.164Z,1.24
2022-12-31T04:23:37.312Z,1.43
2022-12-31T04:26:05.956Z,1.56
2022-12-31T04:28:33.116Z,1.24
2022-12-31T04:31:00.194Z,1.32
2022-12-31T04:33:27.294Z,1.27
2022-12-31T04:36:00.120Z,1.36
2022-12-31T04:38:28.949Z,1.55
2022-12-31T04:40:56.881Z,1.46
2022-12-31T04:43:25.535Z,1.30
2022-12-31T04:45:52.673Z,1.33
2022-12-31T04:48:20.095Z,1.34
2022-12-31T04:50:47.538Z,1.46
2022-12-31T04:53:14.717Z,1.36
2022-12-31T04:55:42.246Z,1.37
2022-12-31T04:58:09.441Z,1.32
2022-12-31T05:00:38.095Z,1.53
2022-12-31T05:03:05.267Z,1.46
2022-12-31T05:05:32.465Z,1.21
2022-12-31T05:07:59.615Z,1.42
2022-12-31T05:10:26.768Z,1.61
2022-12-31T05:12:53.912Z,1.21
2022-12-31T05:15:21.033Z,1.32
2022-12-31T05:17:49.859Z,1.34
2022-12-31T05:20:17.115Z,1.24
2022-12-31T05:22:44.254Z,1.43
2022-12-31T05:25:11.309Z,1.35
2022-12-31T05:27:38.532Z,1.32
2022-12-31T05:30:07.018Z,1.35
2022-12-31T05:32:35.039Z,1.32
2022-12-31T05:35:04.431Z,1.36
2022-12-31T05:37:32.230Z,1.39
2022-12-31T05:40:00.101Z,1.30
2022-12-31T05:42:27.324Z,1.22
2022-12-31T05:44:54.575Z,1.25
2022-12-31T05:47:21.951Z,1.15
2022-12-31T05:49:49.072Z,1.28
2022-12-31T05:52:17.970Z,1.12
2022-12-31T05:54:45.105Z,1.26
2022-12-31T05:57:12.208Z,1.25
2022-12-31T05:59:39.328Z,1.44
2022-12-31T06:02:06.480Z,1.38
2022-12-31T06:04:33.480Z,1.16
2022-12-31T06:07:00.543Z,1.18
2022-12-31T06:09:29.044Z,1.24
2022-12-31T06:11:56.211Z,1.13
2022-12-31T06:14:23.573Z,1.24
2022-12-31T06:16:50.675Z,1.62
2022-12-31T06:19:17.889Z,1.46
2022-12-31T06:21:44.943Z,1.35
2022-12-31T06:24:12.025Z,1.27
2022-12-31T06:26:40.540Z,1.13
2022-12-31T06:29:07.724Z,1.41
2022-12-31T06:31:35.017Z,1.33
2022-12-31T06:34:02.401Z,1.14
2022-12-31T06:36:29.865Z,1.33
2022-12-31T06:38:56.990Z,1.16
2022-12-31T06:41:24.101Z,1.34
2022-12-31T06:43:52.644Z,1.34
2022-12-31T06:46:19.824Z,1.18
2022-12-31T06:48:46.879Z,1.23
2022-12-31T06:51:17.475Z,1.37
2022-12-31T06:53:46.312Z,1.52
2022-12-31T06:56:16.245Z,1.21
2022-12-31T06:58:44.379Z,1.23
2022-12-31T07:01:36.514Z,1.33
2022-12-31T07:04:19.685Z,1.80
2022-12-31T07:06:55.746Z,1.43
2022-12-31T07:09:36.534Z,1.73
2022-12-31T07:12:14.401Z,1.11
2022-12-31T07:14:49.546Z,1.20
2022-12-31T07:17:32.288Z,1.28
2022-12-31T07:20:05.400Z,1.28
2022-12-31T07:22:33.545Z,1.19
2022-12-31T07:25:01.670Z,1.22
2022-12-31T07:27:56.194Z,1.25
2022-12-31T07:30:31.732Z,1.28
2022-12-31T07:33:29.653Z,1.23
2022-12-31T07:36:12.131Z,1.38
2022-12-31T07:38:50.243Z,1.30
2022-12-31T07:41:34.600Z,1.28
2022-12-31T07:44:07.871Z,1.21
2022-12-31T07:46:47.859Z,1.05
2022-12-31T07:49:17.382Z,1.28
2022-12-31T07:51:44.911Z,1.18
2022-12-31T07:54:14.150Z,1.18
2022-12-31T07:56:43.196Z,0.94
2022-12-31T07:59:29.558Z,1.14
2022-12-31T08:02:05.527Z,1.00
2022-12-31T08:04:48.230Z,1.29
2022-12-31T08:07:26.896Z,1.19
2022-12-31T08:10:03.884Z,0.96
2022-12-31T08:12:36.044Z,1.03
2022-12-31T08:15:11.742Z,1.20
2022-12-31T08:17:39.334Z,1.11
2022-12-31T08:20:13.526Z,1.12
2022-12-31T08:23:05.256Z,1.12
2022-12-31T08:25:47.617Z,1.18
2022-12-31T08:28:26.116Z,1.10
2022-12-31T08:31:01.397Z,1.02
2022-12-31T08:33:39.103Z,1.03
2022-12-31T08:36:18.119Z,0.97
2022-12-31T08:38:55.125Z,1.39
2022-12-31T08:41:29.829Z,1.23
2022-12-31T08:44:10.517Z,0.96
2022-12-31T08:46:48.698Z,0.97
2022-12-31T08:49:16.467Z,1.09
2022-12-31T08:51:45.606Z,1.04
2022-12-31T08:54:14.135Z,1.12
2022-12-31T08:56:50.778Z,0.98
2022-12-31T08:59:36.002Z,1.16
2022-12-31T09:02:29.384Z,1.18
2022-12-31T09:05:08.891Z,1.24
2022-12-31T09:07:41.408Z,1.45
2022-12-31T09:10:19.365Z,1.22
2022-12-31T09:12:59.296Z,1.24
2022-12-31T09:15:33.900Z,1.13
2022-12-31T09:18:01.998Z,1.47
2022-12-31T09:20:42.757Z,2.64
2022-12-31T09:23:13.166Z,1.52
2022-12-31T09:25:54.477Z,1.30
2022-12-31T09:28:39.708Z,1.30
2022-12-31T09:31:17.522Z,1.52
2022-12-31T09:33:55.575Z,1.40
2022-12-31T09:36:32.320Z,1.19
2022-12-31T09:39:13.184Z,1.16
2022-12-31T09:42:10.319Z,1.11
2022-12-31T09:45:19.815Z,1.52
2022-12-31T09:48:28.067Z,2.15
2022-12-31T09:51:12.715Z,8.52
2022-12-31T09:53:54.081Z,2.84
2022-12-31T09:56:29.356Z,2.10
2022-12-31T09:59:05.708Z,1.82
2022-12-31T10:01:49.565Z,1.98
2022-12-31T10:04:49.166Z,1.47
2022-12-31T10:07:36.813Z,1.77
2022-12-31T10:10:13.478Z,1.48
2022-12-31T10:13:13.198Z,1.17
2022-12-31T10:16:05.617Z,1.19
2022-12-31T10:18:54.661Z,1.25
2022-12-31T10:21:46.469Z,1.43
2022-12-31T10:24:48.031Z,1.84
2022-12-31T10:27:28.696Z,1.77
2022-12-31T10:30:12.033Z,1.53
2022-12-31T10:32:44.150Z,1.60
2022-12-31T10:35:29.302Z,1.57
2022-12-31T10:38:14.550Z,1.90
2022-12-31T10:41:24.038Z,1.35
2022-12-31T10:44:38.474Z,1.25
2022-12-31T10:47:40.032Z,1.40
2022-12-31T10:50:44.470Z,1.23
2022-12-31T10:53:44.159Z,1.35
2022-12-31T10:56:50.870Z,1.68
2022-12-31T11:00:01.872Z,2.13
2022-12-31T11:03:06.891Z,2.97
2022-12-31T11:06:18.254Z,2.20
2022-12-31T11:09:27.478Z,2.29
2022-12-31T11:12:10.680Z,1.93
2022-12-31T11:15:03.641Z,1.56
2022-12-31T11:17:53.883Z,1.41
2022-12-31T11:20:42.912Z,1.32
2022-12-31T11:23:30.634Z,2.00
2022-12-31T11:26:12.065Z,1.60
2022-12-31T11:29:05.043Z,1.55
2022-12-31T11:31:50.509Z,1.78
2022-12-31T11:34:49.780Z,1.92
2022-12-31T11:37:35.284Z,1.82
2022-12-31T11:40:30.372Z,2.16
2022-12-31T11:43:01.983Z,1.78
2022-12-31T11:45:57.414Z,1.45
2022-12-31T11:48:36.391Z,1.37
2022-12-31T11:51:33.130Z,1.37
2022-12-31T11:54:35.324Z,1.34
2022-12-31T11:57:17.445Z,1.56
2022-12-31T11:59:45.091Z,1.53
2022-12-31T12:02:25.976Z,1.54
2022-12-31T12:04:55.514Z,1.74
2022-12-31T12:07:25.046Z,1.53
2022-12-31T12:09:56.088Z,1.52
2022-12-31T12:12:23.929Z,1.37
2022-12-31T12:14:53.388Z,1.50
2022-12-31T12:17:28.681Z,1.37
2022-12-31T12:19:57.055Z,1.49
2022-12-31T12:22:28.048Z,1.43
2022-12-31T12:24:58.189Z,1.35
2022-12-31T12:27:29.665Z,1.25
2022-12-31T12:29:56.906Z,1.31
2022-12-31T12:32:26.869Z,1.89
2022-12-31T12:34:54.570Z,1.67
2022-12-31T12:37:33.026Z,1.34
2022-12-31T12:40:03.248Z,1.12
2022-12-31T12:42:31.788Z,1.06
2022-12-31T12:45:04.770Z,1.17
2022-12-31T12:47:33.408Z,1.19
2022-12-31T12:50:01.206Z,1.53
2022-12-31T12:52:59.551Z,1.31
2022-12-31T12:55:38.822Z,1.26
2022-12-31T12:58:21.511Z,1.70
2022-12-31T13:01:03.111Z,1.49
2022-12-31T13:04:33.557Z,1.73
2022-12-31T13:07:16.576Z,2.18
2022-12-31T13:10:05.474Z,2.74
2022-12-31T13:13:13.726Z,2.40
2022-12-31T13:15:41.866Z,3.29
2022-12-31T13:18:26.877Z,2.89
2022-12-31T13:21:03.610Z,2.29
2022-12-31T13:23:41.715Z,1.89
2022-12-31T13:26:21.050Z,2.02
2022-12-31T13:28:52.488Z,2.35
2022-12-31T13:31:26.368Z,2.14
2022-12-31T13:34:01.225Z,2.09
2022-12-31T13:36:33.556Z,2.17
2022-12-31T13:39:05.957Z,2.51
2022-12-31T13:41:43.606Z,1.91
2022-12-31T13:44:18.532Z,1.94
2022-12-31T13:46:52.110Z,1.86
2022-12-31T13:49:27.066Z,1.63
2022-12-31T13:52:02.790Z,2.09
2022-12-31T13:54:38.414Z,2.35
2022-12-31T13:57:19.390Z,2.86
2022-12-31T13:59:55.168Z,2.46
2022-12-31T14:02:36.095Z,1.99
2022-12-31T14:05:15.485Z,1.74
2022-12-31T14:07:50.629Z,1.64
2022-12-31T14:10:28.358Z,1.64
2022-12-31T14:13:11.348Z,1.78
2022-12-31T14:15:52.729Z,1.55
2022-12-31T14:18:30.767Z,1.70
2022-12-31T14:21:08.451Z,1.70
2022-12-31T14:23:47.228Z,2.20
2022-12-31T14:26:23.947Z,2.80
2022-12-31T14:29:03.767Z,2.03
2022-12-31T14:32:01.084Z,2.53
2022-12-31T14:34:42.067Z,2.25
2022-12-31T14:37:18.593Z,1.94
2022-12-31T14:39:58.558Z,1.97
2022-12-31T14:42:37.770Z,1.88
2022-12-31T14:45:26.690Z,2.09
2022-12-31T14:48:01.031Z,2.03
2022-12-31T14:50:31.324Z,1.87
2022-12-31T14:53:08.974Z,2.01
2022-12-31T14:55:38.001Z,1.76
2022-12-31T14:58:29.340Z,2.26
2022-12-31T15:01:01.125Z,2.30
2022-12-31T15:03:41.284Z,2.46
2022-12-31T15:06:41.817Z,3.01
2022-12-31T15:09:32.458Z,2.59
2022-12-31T15:12:17.421Z,2.71
2022-12-31T15:15:06.899Z,2.73
2022-12-31T15:17:50.565Z,3.15
2022-12-31T15:20:52.782Z,5.52
2022-12-31T15:23:24.223Z,3.75
2022-12-31T15:25:59.792Z,3.52
2022-12-31T15:28:33.938Z,2.81
2022-12-31T15:31:11.717Z,2.97
2022-12-31T15:33:56.820Z,2.47
2022-12-31T15:36:26.677Z,2.84
2022-12-31T15:39:07.493Z,1.96
2022-12-31T15:41:43.013Z,2.44
2022-12-31T15:44:28.925Z,3.83
2022-12-31T15:47:02.973Z,1.79
2022-12-31T15:49:40.940Z,1.82
2022-12-31T15:52:16.613Z,1.79
2022-12-31T15:54:48.234Z,1.89
2022-12-31T15:57:19.714Z,3.85
2022-12-31T15:59:47.690Z,4.29
2022-12-31T16:02:23.974Z,2.94
2022-12-31T16:04:54.753Z,2.33
2022-12-31T16:07:23.910Z,2.37
2022-12-31T16:09:56.217Z,3.05
2022-12-31T16:12:30.941Z,3.13
2022-12-31T16:15:01.825Z,2.70
2022-12-31T16:17:31.137Z,2.67
2022-12-31T16:20:02.643Z,2.62
2022-12-31T16:22:37.389Z,2.59
2022-12-31T16:27:55.319Z,2.15
2022-12-31T16:30:26.066Z,2.24
2022-12-31T16:33:00.853Z,2.39
2022-12-31T16:35:31.854Z,2.65
2022-12-31T16:38:19.980Z,2.74
2022-12-31T16:41:08.656Z,3.26
2022-12-31T16:43:39.159Z,3.41
2022-12-31T16:46:16.282Z,3.77
2022-12-31T16:48:48.400Z,3.83
2022-12-31T16:51:24.557Z,3.76
2022-12-31T16:53:52.384Z,4.21
2022-12-31T16:56:24.602Z,3.75
2022-12-31T16:59:00.170Z,3.82
2022-12-31T17:01:32.742Z,3.91
2022-12-31T17:04:04.695Z,3.95
2022-12-31T17:06:33.435Z,3.57
2022-12-31T17:09:19.500Z,3.44
2022-12-31T17:11:54.613Z,3.76
2022-12-31T17:14:24.082Z,4.15
2022-12-31T17:17:02.592Z,3.66
2022-12-31T17:19:43.594Z,3.86
2022-12-31T17:22:29.797Z,4.47
2022-12-31T17:25:03.782Z,4.84
2022-12-31T17:27:32.342Z,5.13
2022-12-31T17:30:19.672Z,6.19
2022-12-31T17:32:47.082Z,7.30
2022-12-31T17:35:29.263Z,5.18
2022-12-31T17:38:26.493Z,4.09
2022-12-31T17:41:00.372Z,4.00
2022-12-31T17:43:34.784Z,4.48
2022-12-31T17:46:09.014Z,3.91
2022-12-31T17:48:37.384Z,3.71
2022-12-31T17:51:05.358Z,3.16
2022-12-31T17:53:33.994Z,4.22
2022-12-31T17:56:03.976Z,3.80
2022-12-31T17:58:35.612Z,3.55
2022-12-31T18:01:06.193Z,3.25
2022-12-31T18:03:33.573Z,4.09
2022-12-31T18:06:01.592Z,4.34
2022-12-31T18:08:29.157Z,6.81
2022-12-31T18:10:57.919Z,4.83
2022-12-31T18:13:26.946Z,4.53
2022-12-31T18:15:54.966Z,7.02
2022-12-31T18:18:25.966Z,5.48
2022-12-31T18:20:57.772Z,3.40
2022-12-31T18:23:29.540Z,3.27
2022-12-31T18:25:58.324Z,3.46
2022-12-31T18:28:25.455Z,3.60
2022-12-31T18:30:53.235Z,3.95
2022-12-31T18:33:23.096Z,5.88
2022-12-31T18:36:08.893Z,3.98
2022-12-31T18:38:37.037Z,4.08
2022-12-31T18:41:06.443Z,5.95
2022-12-31T18:43:33.575Z,5.84
2022-12-31T18:46:00.673Z,4.59
2022-12-31T18:48:27.907Z,5.11
2022-12-31T18:50:56.538Z,4.42
2022-12-31T18:53:25.672Z,4.62
2022-12-31T18:55:54.867Z,4.85
2022-12-31T18:58:24.068Z,5.48
2022-12-31T19:00:52.401Z,6.03
2022-12-31T19:03:22.439Z,6.66
2022-12-31T19:05:51.141Z,6.78
2022-12-31T19:08:20.914Z,6.28
2022-12-31T19:10:51.871Z,5.34
2022-12-31T19:13:20.311Z,5.20
2022-12-31T19:15:51.283Z,5.99
2022-12-31T19:18:19.043Z,6.08
2022-12-31T19:20:47.024Z,5.38
2022-12-31T19:23:16.216Z,5.07
2022-12-31T19:25:48.234Z,5.35
2022-12-31T19:28:18.345Z,6.19
2022-12-31T19:30:45.890Z,5.70
2022-12-31T19:33:15.028Z,5.93
2022-12-31T19:35:42.793Z,6.14
2022-12-31T19:38:18.318Z,6.27
2022-12-31T19:40:46.876Z,6.87
2022-12-31T19:43:16.233Z,5.93
2022-12-31T19:45:44.644Z,6.33
2022-12-31T19:48:16.107Z,6.71
2022-12-31T19:50:46.092Z,6.59
2022-12-31T19:53:15.950Z,6.92
2022-12-31T19:55:43.413Z,6.37
2022-12-31T19:58:18.550Z,7.35
2022-12-31T20:00:51.702Z,6.97
2022-12-31T20:03:24.699Z,6.88
2022-12-31T20:06:00.129Z,5.77
2022-12-31T20:08:27.261Z,5.51
2022-12-31T20:10:54.428Z,5.13
2022-12-31T20:13:21.524Z,4.90
2022-12-31T20:15:49.045Z,5.48
2022-12-31T20:18:16.230Z,6.50
2022-12-31T20:20:55.059Z,6.17
2022-12-31T20:23:22.843Z,5.90
2022-12-31T20:25:57.422Z,6.10
2022-12-31T20:28:25.264Z,7.14
2022-12-31T20:30:52.630Z,6.35
2022-12-31T20:33:19.988Z,6.00
2022-12-31T20:35:48.786Z,6.02
2022-12-31T20:38:15.868Z,6.64
2022-12-31T20:40:46.631Z,6.37
2022-12-31T20:43:14.786Z,6.67
2022-12-31T20:45:42.036Z,6.64
2022-12-31T20:48:09.236Z,6.14
2022-12-31T20:50:36.665Z,6.22
2022-12-31T20:53:05.273Z,6.20
2022-12-31T20:55:32.486Z,6.88
2022-12-31T20:57:59.697Z,6.46
2022-12-31T21:00:26.859Z,6.13
2022-12-31T21:03:03.881Z,6.11
2022-12-31T21:05:35.772Z,6.10
2022-12-31T21:08:04.902Z,6.93
2022-12-31T21:10:32.154Z,7.35
2022-12-31T21:12:59.351Z,7.48
2022-12-31T21:15:26.693Z,7.28
2022-12-31T21:17:53.908Z,7.07
2022-12-31T21:20:21.113Z,7.04
2022-12-31T21:22:48.223Z,6.33
2022-12-31T21:25:16.818Z,5.91
2022-12-31T21:27:44.205Z,6.05
2022-12-31T21:30:20.396Z,5.66
2022-12-31T21:32:47.927Z,5.95
2022-12-31T21:35:42.398Z,6.06
2022-12-31T21:38:02.777Z,6.20
2022-12-31T21:40:32.067Z,7.88
2022-12-31T21:42:59.239Z,10.72
2022-12-31T21:45:26.572Z,8.47
2022-12-31T21:47:53.825Z,6.46
2022-12-31T21:50:21.117Z,6.58
2022-12-31T21:52:48.312Z,5.86
2022-12-31T21:55:15.736Z,6.14
2022-12-31T21:58:15.499Z,6.77
2022-12-31T22:00:42.329Z,6.51
2022-12-31T22:03:12.624Z,5.98
2022-12-31T22:05:46.859Z,6.16
2022-12-31T22:08:15.379Z,6.26
2022-12-31T22:10:50.322Z,6.66
2022-12-31T22:13:21.816Z,6.09
2022-12-31T22:15:55.398Z,7.12
2022-12-31T22:18:27.834Z,5.92
2022-12-31T22:21:02.756Z,6.28
2022-12-31T22:23:30.351Z,6.90
2022-12-31T22:25:57.831Z,6.59
2022-12-31T22:28:41.625Z,7.14
2022-12-31T22:31:13.875Z,7.17
2022-12-31T22:33:41.300Z,6.39
2022-12-31T22:36:12.516Z,6.28
2022-12-31T22:38:39.869Z,6.62
2022-12-31T22:41:09.216Z,6.04
2022-12-31T22:43:40.083Z,6.55
2022-12-31T22:46:09.847Z,6.15
2022-12-31T22:48:37.609Z,6.31
2022-12-31T22:51:05.454Z,6.24
2022-12-31T22:53:32.695Z,6.16
2022-12-31T22:55:59.837Z,6.23
2022-12-31T22:58:27.111Z,6.42
2022-12-31T23:00:55.674Z,6.31
2022-12-31T23:03:22.836Z,6.04
2022-12-31T23:05:51.834Z,5.73
2022-12-31T23:08:23.242Z,6.08
2022-12-31T23:10:52.957Z,6.63
2022-12-31T23:13:20.176Z,7.91
2022-12-31T23:15:47.375Z,10.11
2022-12-31T23:18:16.073Z,10.91
2022-12-31T23:20:43.251Z,9.10
2022-12-31T23:23:15.050Z,9.99
2022-12-31T23:25:44.098Z,12.42
2022-12-31T23:28:13.088Z,12.59
2022-12-31T23:30:41.751Z,10.01
2022-12-31T23:33:17.164Z,10.61
2022-12-31T23:35:44.878Z,8.55
2022-12-31T23:38:13.344Z,7.01
2022-12-31T23:40:40.486Z,6.08
2022-12-31T23:43:08.990Z,5.61
2022-12-31T23:45:36.740Z,5.76
2022-12-31T23:48:04.449Z,5.51
2022-12-31T23:50:33.036Z,6.40
2022-12-31T23:53:00.207Z,6.40
2022-12-31T23:55:27.408Z,6.13
2022-12-31T23:57:55.403Z,6.29
